Anderson, South Carolina
Current Conditions -  °F | °C
As of 12:56 AM on Saturday 25 Oct 2014 (Local Time) from KAND Reporting Station
Clear Clear  
Wind Chill: 47°   Ceiling: Unl
Heat Index: 47°   Visibility: 10mi
Dew Point: 45°   Wind: 3mph
Humidity: 93%   Direction: 350°N
Pressure: 30.02"   Gusts: NA
Location:  34.5°N, 82.65°W
Report Text: KAND 250456Z AUTO 35003KT 10SM CLR 08/07 A3002 RMK AO2 SLP164 T00830072 402060050
Loading
Personal Weather Stations






























Interactive Weather Map
Tropical Storm Tracking
New forecast layout! Learn more

10-Day Weather Forecast

Advertisements
Track Severe Weather on mobile